Austinville, Virginia
Current Conditions -  °F | °C
As of 11:35 AM on Thursday 23 Oct 2014 (Local Time) from KHLX Reporting Station
Broken Clouds Broken Clouds  
Wind Chill: 39°   Ceiling: 2100
Heat Index: 47°   Visibility: 10mi
Dew Point: 37°   Wind: 20mph
Humidity: 70%   Direction: 320°NW
Pressure: 30.12"   Gusts: 25mph
Location:  36.85°N, 80.91°W
Report Text: KHLX 231535Z AUTO 32017G22KT 10SM BKN021 08/03 A3012 RMK AO2 T00810030
Loading
Personal Weather Stations






























Interactive Weather Map
Tropical Storm Tracking
New forecast layout! Learn more

10-Day Weather Forecast

Advertisements
Track Severe Weather on mobile